Flight Track Log - Related Links

Times and Time Zones

All times are in EDT time to prevent confusion due to time zone crossing. See the N900WP flight status page for this flight to view local times or setup timezone preferences in your user account.


Time Position Orientation Groundspeed Altitude Reporting Facility
EDT Latitude Longitude Course Direction KTS MPH feet Rate Location/Type
Tue 07:38:36 PM 35.7433 -84.0003 132° Southeast 152 175 4,200  Level Atlanta Center
Tue 07:39:36 PM 35.7119 -83.9569 132° Southeast 162 186 6,100 1,900 Climbing Atlanta Center
Tue 07:40:36 PM 35.6722 -83.9058 134° Southeast 174 200 8,000 1,950 Climbing Atlanta Center
Tue 07:41:36 PM 35.6367 -83.8572 132° Southeast 179 206 10,000 2,000 Climbing Atlanta Center
Tue 07:42:36 PM 35.5886 -83.8294 155° Southeast 179 206 12,000 1,900 Climbing Atlanta Center
Tue 07:43:36 PM 35.5367 -83.8167 169° South 186 214 13,800 1,600 Climbing Atlanta Center
Tue 07:44:36 PM 35.4803 -83.8042 170° South 203 234 15,200 1,100 Climbing Atlanta Center
Tue 07:45:36 PM 35.4175 -83.7917 171° South 214 246 16,000 400 Climbing Atlanta Center
Tue 07:46:36 PM 35.3467 -83.7792 172° South 239 275 16,000  Level Atlanta Center
Tue 07:47:36 PM 35.2714 -83.7639 171° South 258 297 16,000  Level Atlanta Center
Tue 07:48:36 PM 35.1922 -83.7464 170° South 279 321 16,000  Level Atlanta Center
Tue 07:49:36 PM 35.1150 -83.7314 171° South 284 327 16,000  Level Atlanta Center
Tue 07:50:36 PM 35.0378 -83.7142 170° South 284 327 16,000  Level Atlanta Center
Tue 07:51:36 PM 34.9625 -83.7269 188° South 284 327 16,000 -200 Level Atlanta Center
Tue 07:52:36 PM 34.8981 -83.7550 200° South 274 315 15,600 -700 Descending Atlanta Center
Tue 07:53:36 PM 34.8250 -83.8008 207° Southwest 287 330 14,600 -1,000 Descending Atlanta Center
Tue 07:54:36 PM 34.7500 -83.8392 203° Southwest 295 339 13,600 -1,200 Descending Atlanta Center
Tue 07:55:36 PM 34.6644 -83.8922 207° Southwest 303 349 12,200 -1,150 Descending Atlanta Center
Tue 07:56:36 PM 34.5978 -83.9178 198° South 298 343 11,300 -1,000 Descending Atlanta Center
Tue 07:57:36 PM 34.5225 -83.9631 206° Southwest 293 337 10,200 -1,050 Descending Atlanta Center
Tue 07:58:36 PM 34.4497 -84.0011 203° Southwest 287 330 9,200 -1,000 Descending Atlanta Center
Tue 07:59:36 PM 34.3786 -84.0389 204° Southwest 287 330 8,200 -850 Descending Atlanta Center
Tue 08:00:36 PM 34.3078 -84.0764 204° Southwest 281 323 7,500 -850 Descending Atlanta Center
Tue 08:01:36 PM 34.2367 -84.1117 202° Southwest 276 318 6,500 -1,000 Descending Atlanta Center
Tue 08:02:36 PM 34.1678 -84.1042 175° South 260 299 5,500 -1,027 Descending Atlanta Center
Tue 08:03:27 PM 34.1167 -84.1000 176° South 193 222 4,600 -811 Descending Atlanta TRACON
Tue 08:04:27 PM 34.0667 -84.1000 180° South 183 211 4,000 -300 Descending Atlanta TRACON
Tue 08:05:27 PM 34.0333 -84.1167 203° Southwest 199 229 4,000 -100 Level Atlanta TRACON
Tue 08:06:27 PM 34.0333 -84.1833 270° West 226 260 3,800 -500 Descending Atlanta TRACON
Tue 08:07:27 PM 34.0000 -84.2333 231° Southwest 184 212 3,000 -474 Descending Atlanta TRACON
Tue 08:08:21 PM 33.9667 -84.2500 203° Southwest 172 198 2,900 -500 Descending Atlanta TRACON
Tue 08:09:27 PM 33.9333 -84.2833 220° Southwest 142 163 2,000 -818 Descending Atlanta TRACON
Tue 08:11:00 PM 33.8756 -84.3020 209° Southwest  Level Estimated
Tue 08:18:00 PM 33.8756 -84.3020 209° Southwest  Level Estimated
Tue 08:19:00 PM 33.8756 -84.3020 209° Southwest  Level Estimated

Login

Don't have an account? Register now (free) for customized features, flight alerts, and more!